KPNSKEYW

Guest
Details From KPNS - Pensacola Rgnl
To KEYW - Key West Intl
Flight Number -
Tags Generated
Created
Modified
Stats Distance 458 nm / 849 km
Max Altitude 0 ft / 0 m
Waypoints 4
Social Downloads 1
Likes 0
Share VATSIM

Download

Looking for another format? Having issues loading an existing format? Contact us
Advertisement - Login to hide

Notes

Generated

Route

KPNS PSTOL MACIV KEYW

ID Type Via Altitude Latitude Longitude Leg Dist Tot Dist Heading (true) Name
O KPNS APT - 0 ft / 0 m 30.47133˚ -87.19594˚ - 0 nm - -
PSTOL FIX - 0 ft / 0 m 27.55806˚ -84.16528˚ 236 nm 236 nm 137° / 138° -
MACIV FIX - 0 ft / 0 m 24.55597˚ -81.76669˚ 221 nm 458 nm 144° / 145° -
O KEYW APT - 0 ft / 0 m 24.55605˚ -81.76677˚ 0 nm 458 nm 321° / 321° -

Altitude Profile

Advertisement - Login to hide

Weather


0- 5 10 15 20 25 30 35+ Temperature / ° C

Clouds and Precipitation
Forecast for 2017-12-19 00:00 UTC. Updated 2 hours ago

Ground ~20,000 ft ~40,000 ft Winds

KPNS

Details ICAO KPNS (PNS)
Name Pensacola Rgnl
Region United States
Timezone America/Chicago (UTC-6.0)
Stats Elevation 121 ft / 37 m (AMSL)
Location 30.473426° -87.186612°
Runways 2
Magnetic Variation 2.821° W

METAR

KPNS 182253Z 25006KT 10SM CLR 23/20 A3016 RMK AO2 SLP216 T02280200

Decode

TAF

TAF KPNS 181942Z 1820/1918 27007KT P6SM VCSH BKN009 BKN015 BKN030 FM190300 13003KT 1/2SM FG OVC004 FM191500 18004KT 4SM BR SCT004 BKN025

Decode

Departure Runways

ID Width Length Bearing (true) Bearing (mag) Surface Threshold Offset Overrun Length
08 150 ft / 46 m 6,991 ft / 2,131 m 78.00° 80.82° Asphalt 0 ft / 0 m 0 ft / 0 m
17 150 ft / 46 m 7,025 ft / 2,141 m 167.05° 169.87° Asphalt 0 ft / 0 m 0 ft / 0 m
26 150 ft / 46 m 6,991 ft / 2,131 m 258.01° 260.83° Asphalt 0 ft / 0 m 0 ft / 0 m
35 150 ft / 46 m 7,025 ft / 2,141 m 347.05° 349.87° Asphalt 0 ft / 0 m 0 ft / 0 m

KEYW

Details ICAO KEYW (EYW)
Name Key West Intl
Region United States
Timezone America/New_York (UTC-5.0)
Stats Elevation 2 ft / 1 m (AMSL)
Location 24.556124° -81.759546°
Runways 1
Magnetic Variation 5.546° W

METAR

KEYW 182253Z 08006KT 10SM CLR 24/22 A3018 RMK AO2 SLP218 T02440217

Decode

TAF

KEYW 181927Z 1819/1918 09010KT P6SM SCT030 BKN200

Decode

Destination Runways

ID Width Length Bearing (true) Bearing (mag) Surface Threshold Offset Overrun Length
09 100 ft / 30 m 4,794 ft / 1,461 m 89.38° 94.93° Asphalt 151 ft / 46 m 0 ft / 0 m
27 100 ft / 30 m 4,794 ft / 1,461 m 269.39° 274.94° Asphalt 151 ft / 46 m 0 ft / 0 m

Popular Alternatives